^^
Station Historical Data
 
Daily Summary for August 29, 2015 Units:  English    Metric   Both
« Previous Day
Next Day »
Daily Weekly Monthly Yearly Custom
  Current: High: Low: Average:
Temperature: 76.8 °F 86.0 °F 52.7 °F 68.6 °F
Dew Point: 47.1 °F 54.2 °F 31.9 °F 45.7 °F
Humidity: 35% 83% 15% 52%
Wind Speed: 0.9mph 6.7mph 0.0mph 2.8mph
Wind Gust: 1.6mph 11.4mph - -
WindNW - - South
Pressure: 30.13 in 30.25 in 30.13 in -
Precipitation: 0.00 in      
Historical Graphs
 
 
Tabular Data for August 29, 2015
Time Temperature Dew Point Pressure Wind Wind Speed Wind Gust Humidity Rainfall Rate (Hourly)
00:01 59.9 °F 48.9 °F 30.22 in Calm     67% 0.00 in
00:06 59.9 °F 48.9 °F 30.22 in Calm     67% 0.00 in
00:11 59.3 °F 48.8 °F 30.21 in NNW 0.2 mph 0.7 mph 68% 0.00 in
00:17 59.2 °F 48.6 °F 30.22 in NNE 0.3 mph 0.7 mph 68% 0.00 in
00:22 59.0 °F 48.8 °F 30.22 in SE 0.1 mph 0.7 mph 69% 0.00 in
00:27 59.0 °F 49.2 °F 30.22 in Calm     70% 0.00 in
00:32 58.8 °F 49.1 °F 30.22 in North 0.1 mph 0.7 mph 70% 0.00 in
00:37 58.8 °F 49.4 °F 30.22 in North 0.5 mph 0.7 mph 71% 0.00 in
00:42 58.8 °F 49.4 °F 30.22 in North 0.5 mph 0.7 mph 71% 0.00 in
00:47 58.8 °F 49.4 °F 30.22 in North 0.5 mph 1.6 mph 71% 0.00 in
00:52 58.8 °F 49.8 °F 30.22 in NNW 0.9 mph 1.6 mph 72% 0.00 in
00:57 58.6 °F 49.3 °F 30.22 in NNW 0.9 mph 1.6 mph 71% 0.00 in
01:02 58.4 °F 49.1 °F 30.22 in East 0.5 mph 1.6 mph 71% 0.00 in
01:07 58.3 °F 48.9 °F 30.21 in NE 0.2 mph 0.7 mph 71% 0.00 in
01:12 58.3 °F 48.9 °F 30.22 in NE 0.2 mph 0.7 mph 71% 0.00 in
01:17 58.1 °F 49.1 °F 30.21 in NE 0.5 mph 0.7 mph 72% 0.00 in
01:22 58.1 °F 49.1 °F 30.22 in NE 0.3 mph 0.7 mph 72% 0.00 in
01:27 57.9 °F 48.9 °F 30.21 in Calm     72% 0.00 in
01:32 57.9 °F 48.9 °F 30.21 in Calm     72% 0.00 in
01:37 57.7 °F 48.8 °F 30.21 in Calm     72% 0.00 in
01:42 57.5 °F 48.6 °F 30.21 in ESE 0.2 mph 1.6 mph 72% 0.00 in
01:43 57.5 °F 49.0 °F 30.21 in ESE 0.2 mph 1.6 mph 73% 0.00 in
01:48 57.5 °F 49.0 °F 30.21 in NW 0.6 mph 1.6 mph 73% 0.00 in
01:53 57.5 °F 49.3 °F 30.21 in NW 0.7 mph 1.6 mph 74% 0.00 in
01:58 57.5 °F 49.3 °F 30.21 in NW 1.0 mph 1.6 mph 74% 0.00 in
02:03 57.7 °F 49.9 °F 30.21 in NW 1.0 mph 1.6 mph 75% 0.00 in
02:08 57.7 °F 49.5 °F 30.21 in WNW 0.7 mph 1.6 mph 74% 0.00 in
02:13 57.5 °F 49.3 °F 30.21 in NW 0.5 mph 0.7 mph 74% 0.00 in
02:18 57.4 °F 49.2 °F 30.21 in NNE 0.4 mph 0.7 mph 74% 0.00 in
02:23 57.4 °F 49.2 °F 30.21 in North 0.2 mph 0.7 mph 74% 0.00 in
02:28 57.2 °F 49.0 °F 30.21 in North 0.1 mph 0.7 mph 74% 0.00 in
02:33 57.2 °F 49.0 °F 30.21 in North 0.1 mph 0.7 mph 74% 0.00 in
02:38 57.0 °F 48.8 °F 30.21 in Calm     74% 0.00 in
02:43 57.0 °F 49.2 °F 30.21 in Calm     75% 0.00 in
02:48 56.8 °F 49.0 °F 30.21 in Calm     75% 0.00 in
02:53 56.6 °F 48.8 °F 30.21 in Calm     75% 0.00 in
02:58 56.5 °F 48.6 °F 30.20 in Calm     75% 0.00 in
03:03 56.5 °F 48.6 °F 30.21 in Calm     75% 0.00 in
03:08 56.3 °F 48.8 °F 30.20 in Calm     76% 0.00 in
03:13 56.1 °F 48.6 °F 30.20 in North 0.1 mph 0.7 mph 76% 0.00 in
03:18 55.9 °F 48.5 °F 30.21 in North 0.2 mph 0.7 mph 76% 0.00 in
03:23 55.7 °F 48.3 °F 30.21 in North 0.1 mph 0.7 mph 76% 0.00 in
03:28 55.7 °F 48.6 °F 30.21 in Calm     77% 0.00 in
03:33 55.7 °F 48.6 °F 30.21 in Calm     77% 0.00 in
03:38 55.6 °F 48.5 °F 30.21 in Calm     77% 0.00 in
03:43 55.6 °F 48.5 °F 30.21 in Calm     77% 0.00 in
03:48 55.6 °F 48.5 °F 30.21 in Calm     77% 0.00 in
03:53 55.4 °F 48.3 °F 30.20 in Calm     77% 0.00 in
03:58 55.2 °F 48.5 °F 30.20 in Calm     78% 0.00 in
04:03 55.2 °F 48.5 °F 30.20 in Calm     78% 0.00 in
04:08 55.0 °F 48.3 °F 30.21 in Calm     78% 0.00 in
04:13 55.0 °F 48.3 °F 30.20 in Calm     78% 0.00 in
04:18 54.8 °F 48.1 °F 30.20 in North 0.1 mph 0.7 mph 78% 0.00 in
04:23 54.7 °F 47.9 °F 30.20 in North 0.1 mph 0.7 mph 78% 0.00 in
04:28 54.7 °F 47.9 °F 30.20 in Calm   0.7 mph 78% 0.00 in
04:33 54.7 °F 47.9 °F 30.20 in Calm     78% 0.00 in
04:38 54.5 °F 47.8 °F 30.20 in Calm     78% 0.00 in
04:43 54.5 °F 48.1 °F 30.20 in Calm     79% 0.00 in
04:48 54.5 °F 48.1 °F 30.20 in Calm     79% 0.00 in
04:53 54.5 °F 48.1 °F 30.20 in Calm     79% 0.00 in
04:58 54.5 °F 48.1 °F 30.20 in Calm     79% 0.00 in
05:03 54.5 °F 48.1 °F 30.20 in Calm     79% 0.00 in
05:08 54.1 °F 47.8 °F 30.20 in Calm     79% 0.00 in
05:13 53.9 °F 47.6 °F 30.20 in Calm     79% 0.00 in
05:18 53.9 °F 47.6 °F 30.20 in Calm     79% 0.00 in
05:23 53.8 °F 47.4 °F 30.19 in Calm     79% 0.00 in
05:28 53.8 °F 47.4 °F 30.19 in Calm     79% 0.00 in
05:33 53.6 °F 47.2 °F 30.20 in Calm   0.7 mph 79% 0.00 in
05:38 53.6 °F 47.2 °F 30.20 in North 0.3 mph 0.7 mph 79% 0.00 in
05:43 53.8 °F 47.7 °F 30.20 in North 0.6 mph 0.7 mph 80% 0.00 in
05:48 53.9 °F 48.3 °F 30.20 in North 0.7 mph 0.7 mph 81% 0.00 in
05:53 54.1 °F 48.4 °F 30.20 in North 0.5 mph 0.7 mph 81% 0.00 in
05:59 54.1 °F 48.4 °F 30.20 in North 0.1 mph 0.7 mph 81% 0.00 in
06:04 54.1 °F 48.4 °F 30.20 in Calm     81% 0.00 in
06:09 53.9 °F 48.3 °F 30.20 in Calm     81% 0.00 in
06:14 53.8 °F 48.1 °F 30.20 in North 0.2 mph 1.6 mph 81% 0.00 in
06:19 53.6 °F 47.9 °F 30.20 in North 0.4 mph 1.6 mph 81% 0.00 in
06:24 53.2 °F 47.2 °F 30.21 in South 0.3 mph 0.7 mph 80% 0.00 in
06:29 52.9 °F 47.2 °F 30.21 in South 0.1 mph 0.7 mph 81% 0.00 in
06:34 53.0 °F 47.4 °F 30.21 in South 0.1 mph 0.7 mph 81% 0.00 in
06:39 53.0 °F 47.4 °F 30.21 in South 0.2 mph 0.7 mph 81% 0.00 in
06:44 52.9 °F 47.2 °F 30.22 in North 0.3 mph 0.7 mph 81% 0.00 in
06:49 52.9 °F 47.2 °F 30.22 in North 0.2 mph 0.7 mph 81% 0.00 in
06:54 52.9 °F 47.2 °F 30.22 in North 0.1 mph 0.7 mph 81% 0.00 in
06:59 52.9 °F 47.2 °F 30.22 in North 0.2 mph 0.7 mph 81% 0.00 in
07:04 52.7 °F 47.0 °F 30.22 in South 0.1 mph 0.7 mph 81% 0.00 in
07:09 52.7 °F 47.0 °F 30.22 in Calm     81% 0.00 in
07:14 52.7 °F 47.3 °F 30.22 in Calm     82% 0.00 in
07:19 52.9 °F 47.5 °F 30.22 in Calm     82% 0.00 in
07:24 52.9 °F 47.5 °F 30.23 in South 0.1 mph 0.7 mph 82% 0.00 in
07:29 53.0 °F 47.7 °F 30.22 in South 0.1 mph 0.7 mph 82% 0.00 in
07:34 53.0 °F 47.7 °F 30.23 in Calm     82% 0.00 in
07:39 53.2 °F 47.9 °F 30.23 in Calm     82% 0.00 in
07:44 53.8 °F 48.4 °F 30.24 in Calm     82% 0.00 in
07:49 54.1 °F 48.8 °F 30.24 in Calm     82% 0.00 in
07:54 54.8 °F 49.8 °F 30.24 in Calm     83% 0.00 in
07:59 55.6 °F 50.5 °F 30.24 in Calm   0.7 mph 83% 0.00 in
08:04 55.7 °F 50.7 °F 30.24 in South 0.3 mph 0.7 mph 83% 0.00 in
08:09 57.0 °F 51.9 °F 30.24 in South 0.5 mph 0.7 mph 83% 0.00 in
08:14 57.7 °F 52.3 °F 30.25 in South 0.2 mph 0.7 mph 82% 0.00 in
08:19 58.3 °F 52.8 °F 30.25 in Calm     82% 0.00 in
08:29 59.7 °F 53.9 °F 30.24 in South 0.6 mph 2.2 mph 81% 0.00 in
08:34 60.8 °F 54.2 °F 30.24 in South 2.1 mph 4.5 mph 79% 0.00 in
08:39 61.3 °F 54.1 °F 30.25 in South 3.4 mph 4.5 mph 77% 0.00 in
08:44 61.9 °F 53.5 °F 30.25 in South 4.2 mph 5.4 mph 74% 0.00 in
08:49 62.4 °F 53.6 °F 30.24 in SSW 5.1 mph 6.0 mph 73% 0.00 in
08:54 62.9 °F 53.0 °F 30.24 in South 5.8 mph 6.9 mph 70% 0.00 in
08:59 63.5 °F 53.1 °F 30.24 in South 5.5 mph 6.9 mph 69% 0.00 in
09:04 63.7 °F 53.3 °F 30.24 in South 4.8 mph 6.0 mph 69% 0.00 in
09:09 64.6 °F 53.4 °F 30.24 in South 4.3 mph 4.5 mph 67% 0.00 in
09:14 65.1 °F 53.5 °F 30.24 in South 3.7 mph 4.5 mph 66% 0.00 in
09:19 65.5 °F 53.4 °F 30.25 in South 3.6 mph 4.5 mph 65% 0.00 in
09:24 66.0 °F 53.1 °F 30.25 in South 4.6 mph 6.0 mph 63% 0.00 in
09:29 66.4 °F 53.4 °F 30.25 in South 4.6 mph 6.0 mph 63% 0.00 in
09:34 66.9 °F 53.5 °F 30.25 in South 4.4 mph 5.4 mph 62% 0.00 in
09:39 67.4 °F 53.5 °F 30.25 in SSE 4.4 mph 5.4 mph 61% 0.00 in
09:44 68.2 °F 53.8 °F 30.24 in SSE 3.9 mph 6.0 mph 60% 0.00 in
09:49 68.7 °F 53.4 °F 30.25 in South 4.7 mph 6.9 mph 58% 0.00 in
09:54 69.1 °F 52.7 °F 30.25 in South 5.4 mph 6.9 mph 56% 0.00 in
09:59 69.6 °F 52.7 °F 30.25 in South 4.4 mph 6.0 mph 55% 0.00 in
10:04 69.8 °F 53.4 °F 30.25 in South 3.3 mph 6.0 mph 56% 0.00 in
10:09 70.7 °F 52.2 °F 30.25 in South 3.4 mph 5.4 mph 52% 0.00 in
10:14 71.0 °F 52.6 °F 30.25 in South 3.7 mph 5.4 mph 52% 0.00 in
10:19 71.9 °F 50.6 °F 30.25 in South 4.2 mph 6.9 mph 47% 0.00 in
10:25 72.3 °F 50.4 °F 30.25 in South 4.8 mph 6.9 mph 46% 0.00 in
10:30 72.5 °F 51.1 °F 30.25 in South 4.7 mph 6.9 mph 47% 0.00 in
10:35 73.0 °F 50.5 °F 30.25 in South 4.0 mph 6.9 mph 45% 0.00 in
10:40 73.7 °F 50.5 °F 30.25 in SSE 3.9 mph 5.4 mph 44% 0.00 in
10:45 74.6 °F 51.3 °F 30.25 in SSE 3.8 mph 5.4 mph 44% 0.00 in
10:50 75.4 °F 50.1 °F 30.25 in South 3.7 mph 5.4 mph 41% 0.00 in
10:55 75.5 °F 48.9 °F 30.25 in South 4.3 mph 6.0 mph 39% 0.00 in
11:00 75.9 °F 49.2 °F 30.25 in South 4.6 mph 6.0 mph 39% 0.00 in
11:05 75.9 °F 49.2 °F 30.25 in South 3.8 mph 6.0 mph 39% 0.00 in
11:10 76.3 °F 46.6 °F 30.25 in South 4.0 mph 6.9 mph 35% 0.00 in
11:15 77.0 °F 48.0 °F 30.25 in SSE 4.4 mph 6.9 mph 36% 0.00 in
11:20 77.5 °F 45.4 °F 30.25 in South 4.3 mph 7.6 mph 32% 0.00 in
11:25 77.7 °F 43.8 °F 30.25 in South 5.1 mph 7.6 mph 30% 0.00 in
11:30 78.1 °F 45.8 °F 30.25 in SSE 5.4 mph 7.6 mph 32% 0.00 in
11:35 78.4 °F 44.5 °F 30.25 in South 5.8 mph 9.8 mph 30% 0.00 in
11:40 78.6 °F 45.5 °F 30.25 in SW 6.0 mph 9.8 mph 31% 0.00 in
11:45 79.1 °F 44.2 °F 30.25 in SSW 5.0 mph 7.6 mph 29% 0.00 in
11:50 79.5 °F 46.3 °F 30.25 in South 4.0 mph 6.9 mph 31% 0.00 in
11:55 80.2 °F 41.2 °F 30.24 in South 4.4 mph 8.3 mph 25% 0.00 in
12:00 79.3 °F 43.4 °F 30.24 in South 5.8 mph 9.2 mph 28% 0.00 in
12:05 79.3 °F 43.4 °F 30.24 in East 6.2 mph 9.2 mph 28% 0.00 in
12:10 79.7 °F 42.8 °F 30.24 in NE 6.2 mph 7.6 mph 27% 0.00 in
12:15 80.0 °F 43.1 °F 30.23 in South 5.9 mph 10.7 mph 27% 0.00 in
12:20 79.7 °F 40.8 °F 30.24 in SW 6.4 mph 10.7 mph 25% 0.00 in
12:25 79.7 °F 43.7 °F 30.23 in SSW 6.5 mph 10.7 mph 28% 0.00 in
12:30 80.6 °F 42.6 °F 30.23 in ESE 5.4 mph 9.2 mph 26% 0.00 in
12:35 80.9 °F 41.9 °F 30.23 in NNE 5.8 mph 8.3 mph 25% 0.00 in
12:40 81.3 °F 41.1 °F 30.22 in SSE 6.4 mph 8.3 mph 24% 0.00 in
12:45 82.2 °F 40.8 °F 30.23 in SSE 6.2 mph 9.8 mph 23% 0.00 in
12:50 82.0 °F 39.5 °F 30.23 in SE 5.8 mph 9.8 mph 22% 0.00 in
12:55 82.0 °F 39.5 °F 30.23 in SSE 5.8 mph 9.8 mph 22% 0.00 in
13:00 82.4 °F 39.8 °F 30.23 in SE 5.4 mph 8.3 mph 22% 0.00 in
13:05 82.4 °F 39.8 °F 30.22 in South 6.1 mph 6.9 mph 22% 0.00 in
13:10 81.7 °F 40.3 °F 30.22 in South 6.6 mph 6.9 mph 23% 0.00 in
13:15 81.1 °F 42.0 °F 30.22 in SSW 5.2 mph 6.9 mph 25% 0.00 in
13:20 81.1 °F 41.0 °F 30.22 in South 4.6 mph 7.6 mph 24% 0.00 in
13:25 82.0 °F 42.8 °F 30.22 in SSW 5.5 mph 11.4 mph 25% 0.00 in
13:30 82.6 °F 42.2 °F 30.21 in SSW 6.3 mph 11.4 mph 24% 0.00 in
13:35 83.3 °F 38.1 °F 30.21 in South 5.3 mph 9.8 mph 20% 0.00 in
13:40 83.3 °F 39.3 °F 30.21 in South 5.4 mph 9.8 mph 21% 0.00 in
13:45 82.6 °F 37.5 °F 30.21 in SSE 6.7 mph 10.7 mph 20% 0.00 in
13:50 82.7 °F 37.6 °F 30.21 in SSE 6.1 mph 10.7 mph 20% 0.00 in
13:55 82.6 °F 39.9 °F 30.21 in South 5.3 mph 9.2 mph 22% 0.00 in
14:00 82.4 °F 40.9 °F 30.20 in SSE 4.8 mph 8.3 mph 23% 0.00 in
14:05 82.4 °F 40.9 °F 30.20 in South 4.7 mph 6.9 mph 23% 0.00 in
14:10 83.6 °F 40.8 °F 30.20 in SSE 4.0 mph 5.4 mph 22% 0.00 in
14:15 84.2 °F 38.8 °F 30.20 in South 5.4 mph 10.7 mph 20% 0.00 in
14:20 84.2 °F 36.1 °F 30.20 in South 6.7 mph 10.7 mph 18% 0.00 in
14:25 83.6 °F 37.1 °F 30.20 in South 4.9 mph 9.2 mph 19% 0.00 in
14:30 84.0 °F 36.0 °F 30.19 in WNW 3.5 mph 6.0 mph 18% 0.00 in
14:35 84.2 °F 36.1 °F 30.19 in WNW 3.6 mph 5.4 mph 18% 0.00 in
14:41 84.7 °F 35.1 °F 30.19 in SSW 4.1 mph 5.4 mph 17% 0.00 in
14:46 85.4 °F 35.7 °F 30.19 in SSE 4.2 mph 6.0 mph 17% 0.00 in
14:51 85.1 °F 33.9 °F 30.19 in SSW 5.4 mph 11.4 mph 16% 0.00 in
14:56 85.1 °F 33.9 °F 30.18 in SSW 5.8 mph 11.4 mph 16% 0.00 in
15:01 85.1 °F 33.9 °F 30.18 in SE 4.5 mph 8.3 mph 16% 0.00 in
15:06 85.1 °F 33.9 °F 30.19 in ENE 4.1 mph 5.4 mph 16% 0.00 in
15:11 85.8 °F 36.0 °F 30.19 in NE 4.0 mph 5.4 mph 17% 0.00 in
15:16 86.0 °F 33.0 °F 30.18 in ESE 3.6 mph 5.4 mph 15% 0.00 in
15:21 85.3 °F 32.4 °F 30.18 in SSE 4.1 mph 6.9 mph 15% 0.00 in
15:26 84.9 °F 35.3 °F 30.18 in South 4.0 mph 6.9 mph 17% 0.00 in
15:31 85.4 °F 35.7 °F 30.18 in ESE 3.2 mph 4.5 mph 17% 0.00 in
15:36 85.8 °F 34.5 °F 30.17 in East 2.7 mph 4.5 mph 16% 0.00 in
15:41 85.8 °F 32.9 °F 30.17 in ENE 3.1 mph 5.4 mph 15% 0.00 in
15:46 85.6 °F 32.7 °F 30.17 in SE 4.3 mph 7.6 mph 15% 0.00 in
15:51 85.1 °F 32.3 °F 30.17 in South 5.1 mph 8.3 mph 15% 0.00 in
15:56 84.5 °F 31.9 °F 30.17 in South 5.2 mph 8.3 mph 15% 0.00 in
16:01 84.0 °F 34.6 °F 30.17 in South 5.0 mph 8.3 mph 17% 0.00 in
16:06 84.9 °F 32.2 °F 30.17 in NW 4.3 mph 8.3 mph 15% 0.00 in
16:11 84.5 °F 31.9 °F 30.17 in WSW 4.6 mph 7.6 mph 15% 0.00 in
16:16 84.0 °F 33.0 °F 30.17 in South 4.7 mph 7.6 mph 16% 0.00 in
16:21 83.8 °F 35.8 °F 30.16 in SSW 2.9 mph 7.6 mph 18% 0.00 in
16:26 83.8 °F 37.2 °F 30.16 in NW 1.4 mph 2.2 mph 19% 0.00 in
16:31 83.6 °F 38.4 °F 30.16 in WNW 1.3 mph 2.2 mph 20% 0.00 in
16:36 83.5 °F 36.9 °F 30.16 in WNW 1.4 mph 2.2 mph 19% 0.00 in
16:41 83.6 °F 39.6 °F 30.16 in WNW 1.6 mph 2.2 mph 21% 0.00 in
16:46 84.0 °F 36.0 °F 30.16 in NW 2.1 mph 3.8 mph 18% 0.00 in
16:51 83.6 °F 37.1 °F 30.16 in NW 2.2 mph 3.8 mph 19% 0.00 in
16:56 83.3 °F 39.3 °F 30.16 in NW 1.8 mph 3.8 mph 21% 0.00 in
17:01 82.7 °F 42.3 °F 30.16 in NW 1.3 mph 2.2 mph 24% 0.00 in
17:06 82.7 °F 42.3 °F 30.15 in NNW 0.8 mph 1.6 mph 24% 0.00 in
17:11 81.8 °F 43.6 °F 30.15 in NNW 0.7 mph 1.6 mph 26% 0.00 in
17:16 81.5 °F 43.3 °F 30.15 in NW 0.8 mph 1.6 mph 26% 0.00 in
17:21 81.1 °F 45.0 °F 30.15 in NW 0.6 mph 1.6 mph 28% 0.00 in
17:26 80.9 °F 44.8 °F 30.15 in NW 0.4 mph 0.7 mph 28% 0.00 in
17:31 80.8 °F 43.7 °F 30.15 in West 0.8 mph 1.6 mph 27% 0.00 in
17:36 80.4 °F 45.3 °F 30.15 in WNW 1.4 mph 1.6 mph 29% 0.00 in
17:41 80.4 °F 45.3 °F 30.15 in NW 1.6 mph 1.6 mph 29% 0.00 in
17:46 80.0 °F 44.0 °F 30.14 in NW 1.2 mph 1.6 mph 28% 0.00 in
17:51 80.0 °F 44.0 °F 30.15 in NW 0.7 mph 1.6 mph 28% 0.00 in
17:56 80.2 °F 44.2 °F 30.14 in WNW 0.7 mph 1.6 mph 28% 0.00 in
18:01 80.0 °F 45.0 °F 30.14 in West 0.6 mph 1.6 mph 29% 0.00 in
18:06 80.0 °F 45.0 °F 30.14 in West 0.5 mph 0.7 mph 29% 0.00 in
18:11 79.7 °F 45.5 °F 30.14 in West 0.4 mph 0.7 mph 30% 0.00 in
18:16 79.7 °F 45.5 °F 30.14 in NNW 0.3 mph 1.6 mph 30% 0.00 in
18:21 79.5 °F 44.5 °F 30.14 in NNW 0.4 mph 1.6 mph 29% 0.00 in
18:26 79.5 °F 44.5 °F 30.14 in NW 0.5 mph 1.6 mph 29% 0.00 in
18:31 79.1 °F 44.2 °F 30.14 in NW 1.2 mph 1.6 mph 29% 0.00 in
18:36 79.0 °F 44.0 °F 30.13 in NW 1.6 mph 1.6 mph 29% 0.00 in
18:41 78.8 °F 44.8 °F 30.13 in NW 1.6 mph 2.2 mph 30% 0.00 in
18:46 78.4 °F 44.5 °F 30.14 in NW 1.5 mph 2.2 mph 30% 0.00 in
18:51 78.4 °F 45.3 °F 30.14 in NW 1.3 mph 2.2 mph 31% 0.00 in
18:56 78.2 °F 45.2 °F 30.13 in NW 1.1 mph 1.6 mph 31% 0.00 in
19:01 78.1 °F 45.0 °F 30.13 in NW 1.4 mph 2.2 mph 31% 0.00 in
19:07 78.1 °F 45.0 °F 30.13 in NW 2.0 mph 2.2 mph 31% 0.00 in
19:12 77.7 °F 46.3 °F 30.13 in NW 1.9 mph 2.2 mph 33% 0.00 in
19:17 77.3 °F 46.8 °F 30.13 in NW 1.6 mph 1.6 mph 34% 0.00 in
19:22 77.2 °F 46.7 °F 30.13 in NW 1.6 mph 1.6 mph 34% 0.00 in
19:27 76.8 °F 47.1 °F 30.13 in NW 0.9 mph 1.6 mph 35% 0.00 in
Export, Pennsylvania, USA
Compliments of Weather Underground